Aviation Digital Data Service (ADDS)

Output produced by METARs form (1226 UTC 21 October 2018)
found at http://www.aviationweather.gov/metar/data/
 
KSAV 211153Z 33007KT 10SM FEW180 13/09 A3010 RMK AO2 SLP191 70020 T01280094 10189 20128 53028
KSAV 211120Z 2112/2212 32009KT P6SM SKC 
     FM211300 35013G20KT P6SM SKC 
     FM211900 36008KT P6SM SKC 
     FM220000 04003KT P6SM SKC
       
KSVN 211156Z AUTO 00000KT 10SM CLR 13/09 A3007 RMK AO2 SLP186 70006 T01330086 10191 20133 52027 FZRANO $
TAF KSVN 211200Z 2112/2218 36009KT 9999 SKC 510054 QNH3000INS 
     BECMG 2113/2114 03015G20KT 9999 SKC QNH3016INS 
     BECMG 2119/2120 36006KT 9999 SKC QNH3021INS 
     BECMG 2214/2215 03006KT 9999 BKN021 QNH3027INS TX19/2121Z TN11/2211Z
       
KLHW 211156Z AUTO 32005KT 10SM CLR 13/09 A3008 RMK AO2 SLP189 70054 T01300091 10188 20129 52026 $
KTBR 211215Z AUTO 35005KT 10SM CLR 11/09 A3012 RMK AO2 T01130092
KVDI 211215Z AUTO 34004KT 10SM CLR 12/08 A3013 RMK AO2
KJYL 211215Z AUTO 01004KT 10SM CLR 12/10 A3013 RMK AO2 T01170100
KDBN 211215Z AUTO 34005KT 10SM CLR 10/07 A3017 RMK AO2
KJES 211218Z AUTO 00000KT 10SM CLR 14/09 A3011 RMK AO2
KSSI 211153Z AUTO 10SM CLR 15/09 A3008 RMK AO2 SLP186 70005 T01500094 10222 20150 51028
KSSI 211120Z 2112/2212 34014G22KT P6SM FEW250 
     FM211500 02015G22KT P6SM SKC 
     FM212300 03009KT P6SM SKC 
     FM220100 03005KT P6SM SKC
       
KBQK 211215Z AUTO 33006KT 10SM CLR 13/10 A3010 RMK AO2
KAYS 211215Z AUTO 36007KT 10SM CLR 13/12 A3012 RMK AO2 T01310116
KNBC 211156Z AUTO 34009KT 10SM CLR 14/10 A3009 RMK AO2 SLP189 70001 T01390100 10189 20139 53029
KHXD 211150Z 35015G25KT 10SM CLR 15/08 A3008